createdAt,value
2022-09-28T00:01:32.721Z,100.00
2022-09-28T00:04:01.964Z,100.00
2022-09-28T00:06:30.683Z,100.00
2022-09-28T00:09:41.346Z,100.00
2022-09-28T00:15:19.289Z,100.00
2022-09-28T00:18:38.748Z,100.00
2022-09-28T00:24:39.451Z,100.00
2022-09-28T00:30:10.339Z,100.00
2022-09-28T00:33:17.899Z,100.00
2022-09-28T00:36:09.579Z,100.00
2022-09-28T00:38:42.311Z,100.00
2022-09-28T00:41:26.630Z,100.00
2022-09-28T00:43:54.968Z,100.00
2022-09-28T00:46:35.111Z,100.00
2022-09-28T00:49:11.496Z,100.00
2022-09-28T00:51:41.029Z,100.00
2022-09-28T00:54:14.633Z,100.00
2022-09-28T00:56:45.403Z,100.00
2022-09-28T00:59:16.422Z,100.00
2022-09-28T01:01:45.112Z,100.00
2022-09-28T01:04:12.662Z,100.00
2022-09-28T01:06:40.477Z,100.00
2022-09-28T01:09:10.774Z,100.00
2022-09-28T01:11:39.600Z,100.00
2022-09-28T01:14:10.296Z,100.00
2022-09-28T01:16:59.101Z,100.00
2022-09-28T01:19:40.114Z,100.00
2022-09-28T01:22:25.794Z,100.00
2022-09-28T01:25:07.174Z,100.00
2022-09-28T01:27:45.015Z,100.00
2022-09-28T01:30:18.809Z,100.00
2022-09-28T01:33:06.331Z,100.00
2022-09-28T01:35:37.670Z,100.00
2022-09-28T01:38:21.320Z,100.00
2022-09-28T01:40:49.554Z,100.00
2022-09-28T01:43:22.757Z,100.00
2022-09-28T01:45:55.870Z,100.00
2022-09-28T01:48:37.535Z,100.00
2022-09-28T01:51:09.382Z,100.00
2022-09-28T01:53:48.807Z,100.00
2022-09-28T01:56:24.650Z,100.00
2022-09-28T01:59:06.355Z,100.00
2022-09-28T02:02:05.696Z,100.00
2022-09-28T02:04:35.486Z,100.00
2022-09-28T02:07:28.241Z,100.00
2022-09-28T02:10:01.089Z,100.00
2022-09-28T02:12:36.210Z,100.00
2022-09-28T02:15:20.465Z,100.00
2022-09-28T02:17:48.045Z,100.00
2022-09-28T02:20:15.988Z,100.00
2022-09-28T02:22:52.834Z,100.00
2022-09-28T02:25:35.601Z,100.00
2022-09-28T02:28:06.049Z,100.00
2022-09-28T02:30:36.890Z,100.00
2022-09-28T02:33:15.463Z,100.00
2022-09-28T02:35:43.679Z,100.00
2022-09-28T02:38:12.573Z,100.00
2022-09-28T02:40:40.472Z,100.00
2022-09-28T02:43:16.392Z,100.00
2022-09-28T02:46:06.207Z,100.00
2022-09-28T02:49:21.037Z,100.00
2022-09-28T02:52:14.067Z,100.00
2022-09-28T02:55:35.107Z,100.00
2022-09-28T02:58:16.887Z,100.00
2022-09-28T03:01:04.099Z,100.00
2022-09-28T03:03:53.518Z,100.00
2022-09-28T03:06:33.999Z,100.00
2022-09-28T03:09:23.473Z,100.00
2022-09-28T03:11:56.046Z,100.00
2022-09-28T03:14:23.948Z,100.00
2022-09-28T03:16:51.268Z,100.00
2022-09-28T03:19:22.901Z,100.00
2022-09-28T03:21:50.042Z,100.00
2022-09-28T03:24:17.039Z,100.00
2022-09-28T03:26:43.968Z,100.00
2022-09-28T03:29:10.935Z,100.00
2022-09-28T03:31:38.351Z,100.00
2022-09-28T03:34:05.482Z,100.00
2022-09-28T03:36:32.576Z,100.00
2022-09-28T03:38:59.835Z,100.00
2022-09-28T03:41:30.315Z,100.00
2022-09-28T03:43:58.157Z,100.00
2022-09-28T03:46:28.672Z,100.00
2022-09-28T03:48:58.465Z,100.00
2022-09-28T03:51:26.694Z,100.00
2022-09-28T03:53:53.810Z,100.00
2022-09-28T03:56:20.812Z,100.00
2022-09-28T03:58:47.930Z,100.00
2022-09-28T04:01:18.377Z,100.00
2022-09-28T04:03:46.728Z,100.00
2022-09-28T04:06:20.982Z,100.00
2022-09-28T04:08:48.087Z,100.00
2022-09-28T04:11:15.331Z,100.00
2022-09-28T04:13:48.291Z,100.00
2022-09-28T04:16:16.384Z,100.00
2022-09-28T04:18:43.772Z,100.00
2022-09-28T04:21:15.713Z,100.00
2022-09-28T04:23:43.468Z,100.00
2022-09-28T04:26:22.210Z,100.00
2022-09-28T04:29:08.227Z,100.00
2022-09-28T04:31:40.786Z,100.00
2022-09-28T04:34:08.205Z,100.00
2022-09-28T04:36:35.256Z,100.00
2022-09-28T04:39:02.507Z,100.00
2022-09-28T04:41:29.625Z,100.00
2022-09-28T04:44:01.940Z,100.00
2022-09-28T04:46:29.188Z,100.00
2022-09-28T04:48:56.352Z,100.00
2022-09-28T04:51:23.511Z,100.00
2022-09-28T04:53:50.847Z,100.00
2022-09-28T04:56:19.228Z,100.00
2022-09-28T04:58:51.741Z,100.00
2022-09-28T05:01:23.941Z,100.00
2022-09-28T05:03:55.887Z,100.00
2022-09-28T05:06:23.666Z,100.00
2022-09-28T05:08:50.661Z,100.00
2022-09-28T05:11:18.656Z,100.00
2022-09-28T05:13:46.002Z,100.00
2022-09-28T05:16:16.174Z,100.00
2022-09-28T05:18:43.380Z,100.00
2022-09-28T05:21:14.543Z,100.00
2022-09-28T05:23:46.576Z,100.00
2022-09-28T05:26:14.239Z,100.00
2022-09-28T05:28:44.962Z,100.00
2022-09-28T05:31:12.108Z,100.00
2022-09-28T05:33:40.542Z,100.00
2022-09-28T05:36:14.251Z,100.00
2022-09-28T05:38:41.178Z,100.00
2022-09-28T05:41:08.417Z,100.00
2022-09-28T05:43:35.512Z,100.00
2022-09-28T05:46:08.612Z,100.00
2022-09-28T05:48:35.757Z,100.00
2022-09-28T05:51:02.901Z,100.00
2022-09-28T05:53:30.089Z,100.00
2022-09-28T05:56:00.238Z,100.00
2022-09-28T05:58:28.660Z,100.00
2022-09-28T06:00:57.061Z,100.00
2022-09-28T06:03:24.693Z,100.00
2022-09-28T06:05:51.627Z,100.00
2022-09-28T06:08:19.004Z,100.00
2022-09-28T06:10:46.466Z,100.00
2022-09-28T06:13:13.462Z,100.00
2022-09-28T06:15:42.810Z,100.00
2022-09-28T06:18:17.420Z,100.00
2022-09-28T06:20:44.531Z,100.00
2022-09-28T06:23:12.805Z,100.00
2022-09-28T06:25:40.445Z,100.00
2022-09-28T06:28:11.520Z,100.00
2022-09-28T06:30:39.235Z,100.00
2022-09-28T06:33:08.657Z,99.78
2022-09-28T06:35:36.212Z,99.13
2022-09-28T06:38:03.697Z,97.93
2022-09-28T06:40:31.481Z,96.18
2022-09-28T06:43:02.297Z,96.37
2022-09-28T06:45:30.767Z,96.26
2022-09-28T06:48:01.099Z,94.13
2022-09-28T06:50:32.484Z,93.05
2022-09-28T06:53:01.173Z,93.41
2022-09-28T06:55:29.122Z,92.49
2022-09-28T06:58:07.348Z,88.99
2022-09-28T07:00:36.605Z,88.25
2022-09-28T07:03:06.374Z,87.03
2022-09-28T07:05:37.478Z,86.24
2022-09-28T07:08:05.426Z,85.91
2022-09-28T07:10:32.786Z,84.80
2022-09-28T07:13:05.749Z,84.57
2022-09-28T07:15:34.093Z,86.61
2022-09-28T07:18:03.445Z,88.51
2022-09-28T07:20:32.467Z,87.95
2022-09-28T07:23:14.733Z,87.95
2022-09-28T07:25:48.193Z,85.82
2022-09-28T07:28:16.028Z,85.09
2022-09-28T07:30:44.983Z,81.40
2022-09-28T07:33:15.630Z,77.46
2022-09-28T07:35:50.874Z,80.32
2022-09-28T07:38:18.129Z,77.08
2022-09-28T07:41:03.918Z,74.02
2022-09-28T07:43:30.910Z,72.52
2022-09-28T07:45:58.397Z,70.40
2022-09-28T07:48:25.628Z,70.44
2022-09-28T07:50:57.509Z,68.03
2022-09-28T07:53:26.140Z,74.09
2022-09-28T07:56:02.175Z,74.20
2022-09-28T07:58:29.755Z,64.04
2022-09-28T08:00:56.759Z,64.14
2022-09-28T08:03:24.040Z,63.84
2022-09-28T08:05:50.959Z,63.76
2022-09-28T08:08:18.700Z,61.60
2022-09-28T08:10:47.502Z,60.69
2022-09-28T08:13:16.468Z,59.38
2022-09-28T08:15:50.460Z,56.90
2022-09-28T08:18:17.821Z,59.04
2022-09-28T08:21:05.896Z,53.96
2022-09-28T08:23:33.086Z,55.25
2022-09-28T08:26:03.028Z,56.07
2022-09-28T08:28:30.650Z,54.86
2022-09-28T08:31:01.102Z,54.99
2022-09-28T08:33:31.430Z,49.12
2022-09-28T08:36:00.644Z,50.26
2022-09-28T08:38:29.616Z,51.92
2022-09-28T08:41:05.754Z,50.25
2022-09-28T08:43:46.420Z,50.37
2022-09-28T08:46:17.834Z,48.05
2022-09-28T08:49:24.560Z,48.84
2022-09-28T08:52:06.113Z,49.16
2022-09-28T08:54:44.700Z,45.60
2022-09-28T08:57:37.515Z,45.35
2022-09-28T09:00:11.556Z,44.75
2022-09-28T09:02:39.928Z,45.07
2022-09-28T09:05:15.123Z,43.92
2022-09-28T09:07:56.594Z,45.97
2022-09-28T09:10:51.098Z,48.45
2022-09-28T09:13:23.834Z,50.75
2022-09-28T09:15:56.164Z,50.89
2022-09-28T09:18:38.062Z,45.23
2022-09-28T09:21:15.810Z,47.24
2022-09-28T09:23:55.708Z,44.34
2022-09-28T09:26:40.058Z,42.73
2022-09-28T09:29:31.770Z,41.86
2022-09-28T09:32:15.555Z,41.49
2022-09-28T09:34:51.505Z,42.63
2022-09-28T09:37:40.787Z,41.12
2022-09-28T09:40:25.527Z,41.70
2022-09-28T09:43:13.302Z,41.53
2022-09-28T09:45:40.361Z,41.80
2022-09-28T09:48:34.393Z,40.86
2022-09-28T09:51:29.813Z,37.53
2022-09-28T09:54:02.389Z,39.70
2022-09-28T09:56:38.912Z,41.63
2022-09-28T09:59:11.979Z,36.91
2022-09-28T10:01:45.182Z,40.05
2022-09-28T10:04:45.334Z,38.84
2022-09-28T10:07:21.120Z,39.51
2022-09-28T10:09:55.358Z,39.63
2022-09-28T10:12:23.907Z,40.66
2022-09-28T10:14:51.144Z,41.26
2022-09-28T10:17:20.073Z,41.41
2022-09-28T10:19:47.399Z,40.85
2022-09-28T10:22:21.589Z,39.94
2022-09-28T10:24:58.576Z,39.93
2022-09-28T10:27:34.638Z,39.61
2022-09-28T10:30:12.919Z,41.36
2022-09-28T10:32:44.726Z,40.48
2022-09-28T10:35:23.812Z,40.56
2022-09-28T10:38:13.322Z,40.45
2022-09-28T10:40:47.998Z,39.70
2022-09-28T10:43:25.756Z,45.80
2022-09-28T10:46:14.377Z,40.08
2022-09-28T10:48:56.285Z,42.31
2022-09-28T10:51:50.153Z,41.38
2022-09-28T10:54:20.277Z,41.30
2022-09-28T10:56:48.482Z,41.84
2022-09-28T10:59:30.766Z,42.77
2022-09-28T11:02:21.861Z,44.54
2022-09-28T11:05:02.970Z,44.25
2022-09-28T11:07:33.215Z,46.01
2022-09-28T11:10:02.040Z,47.06
2022-09-28T11:12:43.391Z,46.99
2022-09-28T11:15:28.695Z,48.75
2022-09-28T11:17:56.071Z,46.40
2022-09-28T11:20:35.778Z,47.46
2022-09-28T11:23:08.970Z,43.77
2022-09-28T11:25:35.920Z,42.53
2022-09-28T11:28:04.847Z,40.74
2022-09-28T11:30:50.499Z,41.21
2022-09-28T11:33:26.139Z,40.20
2022-09-28T11:36:12.125Z,40.32
2022-09-28T11:39:12.382Z,39.17
2022-09-28T11:41:53.247Z,38.41
2022-09-28T11:44:35.461Z,38.11
2022-09-28T11:47:14.105Z,38.35
2022-09-28T11:49:49.454Z,40.27
2022-09-28T11:52:27.763Z,38.40
2022-09-28T11:55:38.411Z,39.32
2022-09-28T11:58:34.134Z,38.13
2022-09-28T12:01:18.591Z,38.33
2022-09-28T12:03:53.168Z,38.98
2022-09-28T12:06:26.200Z,38.35
2022-09-28T12:09:07.930Z,37.88
2022-09-28T12:12:14.331Z,37.82
2022-09-28T12:14:43.305Z,37.29
2022-09-28T12:17:57.914Z,36.74
2022-09-28T12:20:27.794Z,38.52
2022-09-28T12:23:27.639Z,37.17
2022-09-28T12:26:05.118Z,37.32
2022-09-28T12:29:36.995Z,37.21
2022-09-28T12:33:05.003Z,38.10
2022-09-28T12:35:55.673Z,37.65
2022-09-28T12:38:32.601Z,37.67
2022-09-28T12:41:36.819Z,37.31
2022-09-28T12:44:35.399Z,38.08
2022-09-28T12:47:50.701Z,38.07
2022-09-28T12:50:38.483Z,38.83
2022-09-28T12:53:29.532Z,38.49
2022-09-28T12:59:18.051Z,38.55
2022-09-28T13:02:11.876Z,40.33
2022-09-28T13:05:03.126Z,38.60
2022-09-28T13:07:38.301Z,39.35
2022-09-28T13:10:21.544Z,40.30
2022-09-28T13:13:17.407Z,39.34
2022-09-28T13:15:58.981Z,39.96
2022-09-28T13:18:40.788Z,40.47
2022-09-28T13:21:36.979Z,42.08
2022-09-28T13:24:32.289Z,39.19
2022-09-28T13:27:23.635Z,41.05
2022-09-28T13:30:07.497Z,41.12
2022-09-28T13:32:37.610Z,39.17
2022-09-28T13:35:06.020Z,42.03
2022-09-28T13:37:34.634Z,40.99
2022-09-28T13:40:06.341Z,42.29
2022-09-28T13:42:46.214Z,39.17
2022-09-28T13:45:25.323Z,39.38
2022-09-28T13:47:52.617Z,44.21
2022-09-28T13:50:22.791Z,41.28
2022-09-28T13:52:57.312Z,41.33
2022-09-28T13:55:46.066Z,40.14
2022-09-28T13:58:25.462Z,40.72
2022-09-28T14:01:04.949Z,40.22
2022-09-28T14:03:55.753Z,41.17
2022-09-28T14:06:29.035Z,39.73
2022-09-28T14:08:59.583Z,39.63
2022-09-28T14:11:34.629Z,44.49
2022-09-28T14:14:23.461Z,44.18
2022-09-28T14:17:00.241Z,39.31
2022-09-28T14:19:33.693Z,44.22
2022-09-28T14:22:30.877Z,41.05
2022-09-28T14:25:23.875Z,41.62
2022-09-28T14:27:56.403Z,44.35
2022-09-28T14:30:27.044Z,46.35
2022-09-28T14:32:58.439Z,51.42
2022-09-28T14:35:31.641Z,53.07
2022-09-28T14:38:22.221Z,54.78
2022-09-28T14:41:44.900Z,55.60
2022-09-28T14:44:16.641Z,57.27
2022-09-28T14:46:48.368Z,59.44
2022-09-28T14:49:19.853Z,60.74
2022-09-28T14:52:03.301Z,61.79
2022-09-28T14:54:46.088Z,62.69
2022-09-28T14:57:24.246Z,64.46
2022-09-28T14:59:51.525Z,64.58
2022-09-28T15:02:31.393Z,64.90
2022-09-28T15:05:23.982Z,66.14
2022-09-28T15:07:53.274Z,67.59
2022-09-28T15:10:27.767Z,68.41
2022-09-28T15:12:56.287Z,69.45
2022-09-28T15:15:31.128Z,70.24
2022-09-28T15:20:36.792Z,71.12
2022-09-28T15:23:04.645Z,72.26
2022-09-28T15:25:33.186Z,73.49
2022-09-28T15:28:06.764Z,74.08
2022-09-28T15:30:36.220Z,75.27
2022-09-28T15:33:23.500Z,75.56
2022-09-28T15:35:56.651Z,76.18
2022-09-28T15:38:24.367Z,77.51
2022-09-28T15:40:51.410Z,78.11
2022-09-28T15:43:27.580Z,78.51
2022-09-28T15:46:11.525Z,79.48
2022-09-28T15:49:02.079Z,79.74
2022-09-28T15:51:30.339Z,80.28
2022-09-28T15:54:12.552Z,80.97
2022-09-28T15:56:59.796Z,83.08
2022-09-28T15:59:32.100Z,83.21
2022-09-28T16:02:16.869Z,84.39
2022-09-28T16:04:52.183Z,86.04
2022-09-28T16:07:20.535Z,87.34
2022-09-28T16:10:13.742Z,87.58
2022-09-28T16:12:42.274Z,89.12
2022-09-28T16:15:20.631Z,89.29
2022-09-28T16:18:01.487Z,89.29
2022-09-28T16:20:41.357Z,90.04
2022-09-28T16:23:24.537Z,90.58
2022-09-28T16:26:25.524Z,90.96
2022-09-28T16:29:17.681Z,92.08
2022-09-28T16:31:54.279Z,91.83
2022-09-28T16:37:32.301Z,92.46
2022-09-28T16:39:59.273Z,92.87
2022-09-28T16:42:28.477Z,93.88
2022-09-28T16:44:56.572Z,94.61
2022-09-28T16:47:24.125Z,93.63
2022-09-28T16:49:51.956Z,93.70
2022-09-28T16:52:42.224Z,94.42
2022-09-28T16:58:05.013Z,95.42
2022-09-28T17:00:32.763Z,96.57
2022-09-28T17:02:59.916Z,96.54
2022-09-28T17:05:26.936Z,96.99
2022-09-28T17:08:04.403Z,96.31
2022-09-28T17:10:50.018Z,95.68
2022-09-28T17:13:30.220Z,96.22
2022-09-28T17:15:58.167Z,96.34
2022-09-28T17:18:25.542Z,95.78
2022-09-28T17:20:56.164Z,95.82
2022-09-28T17:23:23.069Z,96.74
2022-09-28T17:25:50.416Z,95.91
2022-09-28T17:28:31.511Z,95.71
2022-09-28T17:30:58.744Z,95.72
2022-09-28T17:33:26.321Z,96.11
2022-09-28T17:36:02.102Z,96.81
2022-09-28T17:38:29.009Z,97.54
2022-09-28T17:40:56.150Z,97.59
2022-09-28T17:43:23.138Z,97.08
2022-09-28T17:45:51.222Z,97.33
2022-09-28T17:48:27.927Z,97.04
2022-09-28T17:50:55.145Z,97.37
2022-09-28T17:53:22.193Z,97.05
2022-09-28T17:55:49.275Z,97.96
2022-09-28T17:58:21.900Z,98.41
2022-09-28T18:00:52.338Z,97.87
2022-09-28T18:03:22.178Z,98.20
2022-09-28T18:05:53.986Z,98.63
2022-09-28T18:08:21.863Z,99.28
2022-09-28T18:10:53.923Z,99.40
2022-09-28T18:13:21.208Z,99.15
2022-09-28T18:15:51.915Z,99.76
2022-09-28T18:18:19.807Z,99.05
2022-09-28T18:20:47.542Z,99.42
2022-09-28T18:23:14.892Z,100.00
2022-09-28T18:25:46.479Z,99.63
2022-09-28T18:28:14.287Z,100.00
2022-09-28T18:30:42.140Z,100.00
2022-09-28T18:33:09.738Z,100.00
2022-09-28T18:35:38.290Z,100.00
2022-09-28T18:38:06.673Z,100.00
2022-09-28T18:40:37.155Z,100.00
2022-09-28T18:43:04.500Z,100.00
2022-09-28T18:45:31.719Z,100.00
2022-09-28T18:47:59.844Z,100.00
2022-09-28T18:50:27.063Z,100.00
2022-09-28T18:52:54.175Z,100.00
2022-09-28T18:55:21.309Z,100.00
2022-09-28T18:57:48.534Z,100.00
2022-09-28T19:00:15.602Z,100.00
2022-09-28T19:02:42.922Z,100.00
2022-09-28T19:05:10.935Z,100.00
2022-09-28T19:10:36.652Z,100.00
2022-09-28T19:13:03.689Z,100.00
2022-09-28T19:15:30.971Z,100.00
2022-09-28T19:17:58.311Z,100.00
2022-09-28T19:20:25.342Z,100.00
2022-09-28T19:22:52.395Z,100.00
2022-09-28T19:25:19.429Z,100.00
2022-09-28T19:27:48.475Z,100.00
2022-09-28T19:30:16.573Z,100.00
2022-09-28T19:32:43.972Z,100.00
2022-09-28T19:35:11.007Z,100.00
2022-09-28T19:37:39.553Z,100.00
2022-09-28T19:40:10.316Z,100.00
2022-09-28T19:42:40.175Z,100.00
2022-09-28T19:45:35.641Z,100.00
2022-09-28T19:48:03.866Z,100.00
2022-09-28T19:50:32.106Z,100.00
2022-09-28T19:53:09.838Z,100.00
2022-09-28T19:55:37.495Z,100.00
2022-09-28T19:58:08.237Z,100.00
2022-09-28T20:00:37.550Z,100.00
2022-09-28T20:03:05.369Z,100.00
2022-09-28T20:05:33.145Z,100.00
2022-09-28T20:08:00.103Z,100.00
2022-09-28T20:10:27.211Z,100.00
2022-09-28T20:12:59.562Z,100.00
2022-09-28T20:15:27.216Z,100.00
2022-09-28T20:17:59.239Z,100.00
2022-09-28T20:20:28.849Z,100.00
2022-09-28T20:22:55.893Z,100.00
2022-09-28T20:25:23.204Z,100.00
2022-09-28T20:27:50.280Z,100.00
2022-09-28T20:30:17.263Z,100.00
2022-09-28T20:32:49.322Z,100.00
2022-09-28T20:35:30.398Z,100.00
2022-09-28T20:38:08.133Z,100.00
2022-09-28T20:40:41.261Z,100.00
2022-09-28T20:43:08.354Z,100.00
2022-09-28T20:45:39.705Z,100.00
2022-09-28T20:48:08.560Z,100.00
2022-09-28T20:50:35.575Z,100.00
2022-09-28T20:53:02.668Z,100.00
2022-09-28T20:55:29.819Z,100.00
2022-09-28T20:57:56.770Z,100.00
2022-09-28T21:00:23.939Z,100.00
2022-09-28T21:02:53.993Z,100.00
2022-09-28T21:05:20.956Z,100.00
2022-09-28T21:07:47.980Z,100.00
2022-09-28T21:10:15.185Z,100.00
2022-09-28T21:12:42.357Z,100.00
2022-09-28T21:15:09.871Z,100.00
2022-09-28T21:17:36.820Z,100.00
2022-09-28T21:20:04.513Z,100.00
2022-09-28T21:22:31.602Z,100.00
2022-09-28T21:24:58.875Z,100.00
2022-09-28T21:27:26.101Z,100.00
2022-09-28T21:29:53.472Z,100.00
2022-09-28T21:32:20.934Z,100.00
2022-09-28T21:34:48.566Z,100.00
2022-09-28T21:37:18.790Z,100.00
2022-09-28T21:39:45.758Z,100.00
2022-09-28T21:42:12.733Z,100.00
2022-09-28T21:44:39.807Z,100.00
2022-09-28T21:47:06.851Z,100.00
2022-09-28T21:49:33.882Z,100.00
2022-09-28T21:52:03.888Z,100.00
2022-09-28T21:54:30.873Z,100.00
2022-09-28T21:57:02.269Z,100.00
2022-09-28T21:59:32.475Z,100.00
2022-09-28T22:01:59.393Z,100.00
2022-09-28T22:04:26.624Z,100.00
2022-09-28T22:06:53.961Z,100.00
2022-09-28T22:09:21.146Z,100.00
2022-09-28T22:11:49.310Z,100.00
2022-09-28T22:14:16.366Z,100.00
2022-09-28T22:16:43.569Z,100.00
2022-09-28T22:19:10.883Z,100.00
2022-09-28T22:21:38.546Z,100.00
2022-09-28T22:24:07.692Z,100.00
2022-09-28T22:26:37.016Z,100.00
2022-09-28T22:29:07.302Z,100.00
2022-09-28T22:31:37.706Z,100.00
2022-09-28T22:34:05.638Z,100.00
2022-09-28T22:36:32.976Z,100.00
2022-09-28T22:39:00.717Z,100.00
2022-09-28T22:41:28.514Z,100.00
2022-09-28T22:43:55.547Z,100.00
2022-09-28T22:46:27.933Z,100.00
2022-09-28T22:48:57.205Z,100.00
2022-09-28T22:51:25.546Z,100.00
2022-09-28T22:53:52.593Z,100.00
2022-09-28T22:56:19.583Z,100.00
2022-09-28T22:58:47.143Z,100.00
2022-09-28T23:01:22.958Z,100.00
2022-09-28T23:03:50.964Z,100.00
2022-09-28T23:06:21.154Z,100.00
2022-09-28T23:08:48.856Z,100.00
2022-09-28T23:11:16.740Z,100.00
2022-09-28T23:13:48.242Z,100.00
2022-09-28T23:16:15.512Z,100.00
2022-09-28T23:18:42.593Z,100.00
2022-09-28T23:21:18.785Z,100.00
2022-09-28T23:23:52.499Z,100.00
2022-09-28T23:29:11.803Z,100.00
2022-09-28T23:31:39.390Z,100.00
2022-09-28T23:34:07.005Z,100.00
2022-09-28T23:36:34.880Z,100.00
2022-09-28T23:39:02.301Z,100.00
2022-09-28T23:41:29.940Z,100.00
2022-09-28T23:43:57.052Z,100.00
2022-09-28T23:46:24.724Z,100.00
2022-09-28T23:48:51.929Z,100.00
2022-09-28T23:51:19.897Z,100.00
2022-09-28T23:53:47.351Z,100.00
2022-09-28T23:56:15.039Z,100.00
2022-09-28T23:58:42.662Z,100.00
